sensor_id;sensor_type;location;lat;lon;timestamp;P1;durP1;ratioP1;P2;durP2;ratioP2
53753;SDS011;39667;52.274;20.964;2022-12-04T00:01:09;53.40;;;31.20;;
53753;SDS011;39667;52.274;20.964;2022-12-04T00:03:37;49.80;;;30.20;;
53753;SDS011;39667;52.274;20.964;2022-12-04T00:06:08;54.30;;;30.70;;
53753;SDS011;39667;52.274;20.964;2022-12-04T00:08:42;47.90;;;29.40;;
53753;SDS011;39667;52.274;20.964;2022-12-04T00:11:10;47.90;;;29.70;;
53753;SDS011;39667;52.274;20.964;2022-12-04T00:13:37;52.60;;;29.80;;
53753;SDS011;39667;52.274;20.964;2022-12-04T00:16:09;55.20;;;30.80;;
53753;SDS011;39667;52.274;20.964;2022-12-04T00:18:38;50.30;;;30.20;;
53753;SDS011;39667;52.274;20.964;2022-12-04T00:21:05;48.50;;;30.60;;
53753;SDS011;39667;52.274;20.964;2022-12-04T00:23:33;51.30;;;30.40;;
53753;SDS011;39667;52.274;20.964;2022-12-04T00:26:19;55.90;;;32.00;;
53753;SDS011;39667;52.274;20.964;2022-12-04T00:28:50;50.10;;;30.60;;
53753;SDS011;39667;52.274;20.964;2022-12-04T00:31:18;51.00;;;29.90;;
53753;SDS011;39667;52.274;20.964;2022-12-04T00:33:46;48.00;;;29.80;;
53753;SDS011;39667;52.274;20.964;2022-12-04T00:36:14;52.50;;;31.40;;
53753;SDS011;39667;52.274;20.964;2022-12-04T00:38:42;49.00;;;30.10;;
53753;SDS011;39667;52.274;20.964;2022-12-04T00:41:10;46.70;;;29.10;;
53753;SDS011;39667;52.274;20.964;2022-12-04T00:43:37;45.70;;;28.20;;
53753;SDS011;39667;52.274;20.964;2022-12-04T00:46:03;49.50;;;29.30;;
53753;SDS011;39667;52.274;20.964;2022-12-04T00:48:29;51.70;;;29.80;;
53753;SDS011;39667;52.274;20.964;2022-12-04T00:50:59;54.00;;;30.80;;
53753;SDS011;39667;52.274;20.964;2022-12-04T00:53:28;53.10;;;31.10;;
53753;SDS011;39667;52.274;20.964;2022-12-04T00:55:55;51.40;;;30.30;;
53753;SDS011;39667;52.274;20.964;2022-12-04T00:58:21;54.60;;;31.30;;
53753;SDS011;39667;52.274;20.964;2022-12-04T01:00:47;51.20;;;29.90;;
53753;SDS011;39667;52.274;20.964;2022-12-04T01:03:13;48.90;;;30.20;;
53753;SDS011;39667;52.274;20.964;2022-12-04T01:05:40;44.20;;;28.40;;
53753;SDS011;39667;52.274;20.964;2022-12-04T01:08:09;46.90;;;28.70;;
53753;SDS011;39667;52.274;20.964;2022-12-04T01:10:37;47.40;;;30.50;;
53753;SDS011;39667;52.274;20.964;2022-12-04T01:13:04;47.50;;;30.00;;
53753;SDS011;39667;52.274;20.964;2022-12-04T01:15:31;49.70;;;29.80;;
53753;SDS011;39667;52.274;20.964;2022-12-04T01:17:57;42.20;;;28.20;;
53753;SDS011;39667;52.274;20.964;2022-12-04T01:20:23;45.30;;;28.20;;
53753;SDS011;39667;52.274;20.964;2022-12-04T01:22:49;43.10;;;27.40;;
53753;SDS011;39667;52.274;20.964;2022-12-04T01:25:15;45.30;;;28.80;;
53753;SDS011;39667;52.274;20.964;2022-12-04T01:27:41;46.50;;;29.70;;
53753;SDS011;39667;52.274;20.964;2022-12-04T01:30:07;46.60;;;29.40;;
53753;SDS011;39667;52.274;20.964;2022-12-04T01:32:34;49.50;;;30.00;;
53753;SDS011;39667;52.274;20.964;2022-12-04T01:35:00;45.90;;;29.90;;
53753;SDS011;39667;52.274;20.964;2022-12-04T01:37:26;50.30;;;29.40;;
53753;SDS011;39667;52.274;20.964;2022-12-04T01:39:55;45.20;;;28.20;;
53753;SDS011;39667;52.274;20.964;2022-12-04T01:42:21;40.80;;;27.00;;
53753;SDS011;39667;52.274;20.964;2022-12-04T01:47:55;45.30;;;27.80;;
53753;SDS011;39667;52.274;20.964;2022-12-04T01:50:27;46.20;;;26.70;;
53753;SDS011;39667;52.274;20.964;2022-12-04T01:52:54;40.50;;;25.80;;
53753;SDS011;39667;52.274;20.964;2022-12-04T01:55:20;41.80;;;26.50;;
53753;SDS011;39667;52.274;20.964;2022-12-04T01:57:46;44.90;;;27.10;;
53753;SDS011;39667;52.274;20.964;2022-12-04T02:00:13;39.30;;;25.00;;
53753;SDS011;39667;52.274;20.964;2022-12-04T02:02:41;44.00;;;28.50;;
53753;SDS011;39667;52.274;20.964;2022-12-04T02:05:11;41.90;;;26.70;;
53753;SDS011;39667;52.274;20.964;2022-12-04T02:07:39;45.30;;;26.80;;
53753;SDS011;39667;52.274;20.964;2022-12-04T02:10:08;41.50;;;25.50;;
53753;SDS011;39667;52.274;20.964;2022-12-04T02:12:44;43.00;;;27.70;;
53753;SDS011;39667;52.274;20.964;2022-12-04T02:15:19;44.40;;;27.80;;
53753;SDS011;39667;52.274;20.964;2022-12-04T02:26:18;42.10;;;27.60;;
53753;SDS011;39667;52.274;20.964;2022-12-04T02:37:26;44.80;;;26.30;;
53753;SDS011;39667;52.274;20.964;2022-12-04T02:40:05;39.20;;;25.30;;
53753;SDS011;39667;52.274;20.964;2022-12-04T02:45:07;36.30;;;24.20;;
53753;SDS011;39667;52.274;20.964;2022-12-04T02:47:37;38.20;;;24.40;;
53753;SDS011;39667;52.274;20.964;2022-12-04T02:50:11;42.60;;;25.80;;
53753;SDS011;39667;52.274;20.964;2022-12-04T02:52:45;38.40;;;24.70;;
53753;SDS011;39667;52.274;20.964;2022-12-04T02:55:22;37.80;;;24.50;;
53753;SDS011;39667;52.274;20.964;2022-12-04T02:57:59;41.00;;;24.80;;
53753;SDS011;39667;52.274;20.964;2022-12-04T03:00:30;36.20;;;22.50;;
53753;SDS011;39667;52.274;20.964;2022-12-04T03:03:02;39.80;;;24.40;;
53753;SDS011;39667;52.274;20.964;2022-12-04T03:05:40;41.90;;;24.90;;
53753;SDS011;39667;52.274;20.964;2022-12-04T03:08:13;41.40;;;25.50;;
53753;SDS011;39667;52.274;20.964;2022-12-04T03:10:46;40.10;;;25.50;;
53753;SDS011;39667;52.274;20.964;2022-12-04T03:13:19;36.60;;;24.10;;
53753;SDS011;39667;52.274;20.964;2022-12-04T03:15:59;41.20;;;23.60;;
53753;SDS011;39667;52.274;20.964;2022-12-04T03:18:36;34.20;;;22.70;;
53753;SDS011;39667;52.274;20.964;2022-12-04T03:21:10;38.20;;;23.90;;
53753;SDS011;39667;52.274;20.964;2022-12-04T03:23:43;39.50;;;23.50;;
53753;SDS011;39667;52.274;20.964;2022-12-04T03:29:08;37.50;;;22.50;;
53753;SDS011;39667;52.274;20.964;2022-12-04T03:31:44;40.00;;;23.80;;
53753;SDS011;39667;52.274;20.964;2022-12-04T03:34:16;37.20;;;24.40;;
53753;SDS011;39667;52.274;20.964;2022-12-04T03:36:52;41.00;;;24.90;;
53753;SDS011;39667;52.274;20.964;2022-12-04T03:39:29;37.80;;;22.80;;
53753;SDS011;39667;52.274;20.964;2022-12-04T03:42:40;40.40;;;23.80;;
53753;SDS011;39667;52.274;20.964;2022-12-04T03:48:14;42.00;;;23.80;;
53753;SDS011;39667;52.274;20.964;2022-12-04T03:50:55;38.30;;;23.50;;
53753;SDS011;39667;52.274;20.964;2022-12-04T03:53:31;39.90;;;23.50;;
53753;SDS011;39667;52.274;20.964;2022-12-04T03:56:08;38.20;;;22.70;;
53753;SDS011;39667;52.274;20.964;2022-12-04T03:58:41;39.60;;;22.90;;
53753;SDS011;39667;52.274;20.964;2022-12-04T04:01:10;41.90;;;24.60;;
53753;SDS011;39667;52.274;20.964;2022-12-04T04:03:44;34.80;;;22.40;;
53753;SDS011;39667;52.274;20.964;2022-12-04T04:06:18;39.90;;;23.40;;
53753;SDS011;39667;52.274;20.964;2022-12-04T04:08:49;39.40;;;23.50;;
53753;SDS011;39667;52.274;20.964;2022-12-04T04:11:27;33.80;;;21.60;;
53753;SDS011;39667;52.274;20.964;2022-12-04T04:14:03;34.00;;;21.70;;
53753;SDS011;39667;52.274;20.964;2022-12-04T04:16:52;37.00;;;22.20;;
53753;SDS011;39667;52.274;20.964;2022-12-04T04:19:42;40.30;;;23.80;;
53753;SDS011;39667;52.274;20.964;2022-12-04T04:22:30;35.70;;;21.90;;
53753;SDS011;39667;52.274;20.964;2022-12-04T04:25:21;35.70;;;22.00;;
53753;SDS011;39667;52.274;20.964;2022-12-04T04:27:51;34.40;;;22.30;;
53753;SDS011;39667;52.274;20.964;2022-12-04T04:30:21;36.20;;;22.50;;
53753;SDS011;39667;52.274;20.964;2022-12-04T04:32:49;34.10;;;21.30;;
53753;SDS011;39667;52.274;20.964;2022-12-04T04:35:32;38.70;;;22.70;;
53753;SDS011;39667;52.274;20.964;2022-12-04T04:38:09;35.30;;;22.30;;
53753;SDS011;39667;52.274;20.964;2022-12-04T04:40:55;36.80;;;23.70;;
53753;SDS011;39667;52.274;20.964;2022-12-04T04:43:34;40.10;;;23.90;;
53753;SDS011;39667;52.274;20.964;2022-12-04T04:46:19;40.10;;;24.70;;
53753;SDS011;39667;52.274;20.964;2022-12-04T04:48:50;45.10;;;25.20;;
53753;SDS011;39667;52.274;20.964;2022-12-04T04:51:19;41.30;;;26.40;;
53753;SDS011;39667;52.274;20.964;2022-12-04T04:53:46;40.90;;;25.50;;
53753;SDS011;39667;52.274;20.964;2022-12-04T04:56:15;41.40;;;26.90;;
53753;SDS011;39667;52.274;20.964;2022-12-04T04:58:42;42.80;;;27.60;;
53753;SDS011;39667;52.274;20.964;2022-12-04T05:01:10;43.90;;;27.50;;
53753;SDS011;39667;52.274;20.964;2022-12-04T05:03:39;45.90;;;26.50;;
53753;SDS011;39667;52.274;20.964;2022-12-04T05:06:06;45.60;;;27.20;;
53753;SDS011;39667;52.274;20.964;2022-12-04T05:08:32;42.00;;;25.50;;
53753;SDS011;39667;52.274;20.964;2022-12-04T05:10:59;34.20;;;23.70;;
53753;SDS011;39667;52.274;20.964;2022-12-04T05:13:26;42.10;;;25.50;;
53753;SDS011;39667;52.274;20.964;2022-12-04T05:15:57;39.40;;;25.80;;
53753;SDS011;39667;52.274;20.964;2022-12-04T05:18:24;42.00;;;26.40;;
53753;SDS011;39667;52.274;20.964;2022-12-04T05:20:50;40.20;;;24.70;;
53753;SDS011;39667;52.274;20.964;2022-12-04T05:23:16;38.60;;;25.30;;
53753;SDS011;39667;52.274;20.964;2022-12-04T05:25:42;37.90;;;24.60;;
53753;SDS011;39667;52.274;20.964;2022-12-04T05:28:08;35.70;;;23.20;;
53753;SDS011;39667;52.274;20.964;2022-12-04T05:30:34;38.90;;;23.20;;
53753;SDS011;39667;52.274;20.964;2022-12-04T05:33:00;37.10;;;24.20;;
53753;SDS011;39667;52.274;20.964;2022-12-04T05:35:26;34.90;;;22.90;;
53753;SDS011;39667;52.274;20.964;2022-12-04T05:37:52;32.50;;;22.60;;
53753;SDS011;39667;52.274;20.964;2022-12-04T05:40:18;34.80;;;22.70;;
53753;SDS011;39667;52.274;20.964;2022-12-04T05:42:44;34.50;;;23.30;;
53753;SDS011;39667;52.274;20.964;2022-12-04T05:45:10;32.80;;;21.40;;
53753;SDS011;39667;52.274;20.964;2022-12-04T05:47:40;33.80;;;22.80;;
53753;SDS011;39667;52.274;20.964;2022-12-04T05:50:08;34.00;;;21.40;;
53753;SDS011;39667;52.274;20.964;2022-12-04T05:52:35;32.70;;;21.40;;
53753;SDS011;39667;52.274;20.964;2022-12-04T05:55:01;32.90;;;21.40;;
53753;SDS011;39667;52.274;20.964;2022-12-04T05:57:27;33.90;;;21.90;;
53753;SDS011;39667;52.274;20.964;2022-12-04T05:59:55;32.30;;;20.70;;
53753;SDS011;39667;52.274;20.964;2022-12-04T06:02:21;32.70;;;20.90;;
53753;SDS011;39667;52.274;20.964;2022-12-04T06:04:48;28.80;;;19.60;;
53753;SDS011;39667;52.274;20.964;2022-12-04T06:07:14;30.60;;;20.80;;
53753;SDS011;39667;52.274;20.964;2022-12-04T06:09:40;30.60;;;21.30;;
53753;SDS011;39667;52.274;20.964;2022-12-04T06:12:06;35.40;;;21.80;;
53753;SDS011;39667;52.274;20.964;2022-12-04T06:14:32;30.80;;;22.40;;
53753;SDS011;39667;52.274;20.964;2022-12-04T06:17:04;33.90;;;22.70;;
53753;SDS011;39667;52.274;20.964;2022-12-04T06:19:30;34.50;;;22.00;;
53753;SDS011;39667;52.274;20.964;2022-12-04T06:21:56;34.90;;;22.50;;
53753;SDS011;39667;52.274;20.964;2022-12-04T06:24:23;31.20;;;20.90;;
53753;SDS011;39667;52.274;20.964;2022-12-04T06:26:50;34.70;;;22.10;;
53753;SDS011;39667;52.274;20.964;2022-12-04T06:29:41;29.60;;;20.10;;
53753;SDS011;39667;52.274;20.964;2022-12-04T06:32:07;32.60;;;22.10;;
53753;SDS011;39667;52.274;20.964;2022-12-04T06:34:33;38.80;;;24.50;;
53753;SDS011;39667;52.274;20.964;2022-12-04T06:37:00;34.80;;;21.90;;
53753;SDS011;39667;52.274;20.964;2022-12-04T06:39:26;36.30;;;22.50;;
53753;SDS011;39667;52.274;20.964;2022-12-04T06:41:52;33.60;;;21.50;;
53753;SDS011;39667;52.274;20.964;2022-12-04T06:44:18;32.60;;;21.00;;
53753;SDS011;39667;52.274;20.964;2022-12-04T06:46:44;33.80;;;22.20;;
53753;SDS011;39667;52.274;20.964;2022-12-04T06:49:13;35.60;;;23.20;;
53753;SDS011;39667;52.274;20.964;2022-12-04T06:51:39;39.00;;;23.60;;
53753;SDS011;39667;52.274;20.964;2022-12-04T06:54:05;33.90;;;23.20;;
53753;SDS011;39667;52.274;20.964;2022-12-04T06:56:31;33.50;;;22.10;;
53753;SDS011;39667;52.274;20.964;2022-12-04T06:58:59;35.50;;;23.20;;
53753;SDS011;39667;52.274;20.964;2022-12-04T07:01:27;37.00;;;23.10;;
53753;SDS011;39667;52.274;20.964;2022-12-04T07:03:56;37.20;;;22.50;;
53753;SDS011;39667;52.274;20.964;2022-12-04T07:06:27;34.60;;;21.40;;
53753;SDS011;39667;52.274;20.964;2022-12-04T07:09:03;35.80;;;23.10;;
53753;SDS011;39667;52.274;20.964;2022-12-04T07:11:34;32.70;;;21.20;;
53753;SDS011;39667;52.274;20.964;2022-12-04T07:14:01;33.30;;;22.60;;
53753;SDS011;39667;52.274;20.964;2022-12-04T07:16:28;33.80;;;22.40;;
53753;SDS011;39667;52.274;20.964;2022-12-04T07:18:57;31.20;;;20.80;;
53753;SDS011;39667;52.274;20.964;2022-12-04T07:21:27;31.00;;;20.20;;
53753;SDS011;39667;52.274;20.964;2022-12-04T07:23:55;30.40;;;21.50;;
53753;SDS011;39667;52.274;20.964;2022-12-04T07:26:24;32.70;;;21.90;;
53753;SDS011;39667;52.274;20.964;2022-12-04T07:28:51;29.40;;;20.70;;
53753;SDS011;39667;52.274;20.964;2022-12-04T07:31:19;34.10;;;21.30;;
53753;SDS011;39667;52.274;20.964;2022-12-04T07:33:47;31.50;;;22.10;;
53753;SDS011;39667;52.274;20.964;2022-12-04T07:36:14;29.20;;;20.80;;
53753;SDS011;39667;52.274;20.964;2022-12-04T07:38:42;29.20;;;20.30;;
53753;SDS011;39667;52.274;20.964;2022-12-04T07:41:09;30.60;;;20.60;;
53753;SDS011;39667;52.274;20.964;2022-12-04T07:43:37;29.00;;;20.50;;
53753;SDS011;39667;52.274;20.964;2022-12-04T07:46:05;29.30;;;21.10;;
53753;SDS011;39667;52.274;20.964;2022-12-04T07:48:33;30.30;;;21.00;;
53753;SDS011;39667;52.274;20.964;2022-12-04T07:53:33;31.70;;;22.80;;
53753;SDS011;39667;52.274;20.964;2022-12-04T07:56:01;29.70;;;21.40;;
53753;SDS011;39667;52.274;20.964;2022-12-04T07:58:28;31.30;;;20.20;;
53753;SDS011;39667;52.274;20.964;2022-12-04T08:00:54;32.20;;;21.10;;
53753;SDS011;39667;52.274;20.964;2022-12-04T08:03:20;29.40;;;20.30;;
53753;SDS011;39667;52.274;20.964;2022-12-04T08:05:46;31.00;;;21.90;;
53753;SDS011;39667;52.274;20.964;2022-12-04T08:08:12;31.60;;;21.50;;
53753;SDS011;39667;52.274;20.964;2022-12-04T08:10:38;30.30;;;21.40;;
53753;SDS011;39667;52.274;20.964;2022-12-04T08:13:05;30.80;;;21.30;;
53753;SDS011;39667;52.274;20.964;2022-12-04T08:15:32;29.60;;;21.70;;
53753;SDS011;39667;52.274;20.964;2022-12-04T08:17:59;27.00;;;19.80;;
53753;SDS011;39667;52.274;20.964;2022-12-04T08:20:25;25.70;;;19.30;;
53753;SDS011;39667;52.274;20.964;2022-12-04T08:22:51;28.20;;;21.80;;
53753;SDS011;39667;52.274;20.964;2022-12-04T08:25:17;26.50;;;20.10;;
53753;SDS011;39667;52.274;20.964;2022-12-04T08:27:43;30.20;;;21.00;;
53753;SDS011;39667;52.274;20.964;2022-12-04T08:30:13;22.60;;;18.10;;
53753;SDS011;39667;52.274;20.964;2022-12-04T08:32:39;26.30;;;19.60;;
53753;SDS011;39667;52.274;20.964;2022-12-04T08:35:05;31.90;;;20.50;;
53753;SDS011;39667;52.274;20.964;2022-12-04T08:37:31;28.10;;;20.20;;
53753;SDS011;39667;52.274;20.964;2022-12-04T08:39:57;27.10;;;20.10;;
53753;SDS011;39667;52.274;20.964;2022-12-04T08:42:23;30.20;;;19.80;;
53753;SDS011;39667;52.274;20.964;2022-12-04T08:44:49;29.80;;;21.10;;
53753;SDS011;39667;52.274;20.964;2022-12-04T08:47:15;26.70;;;19.60;;
53753;SDS011;39667;52.274;20.964;2022-12-04T08:49:41;31.20;;;20.90;;
53753;SDS011;39667;52.274;20.964;2022-12-04T08:52:07;26.70;;;19.80;;
53753;SDS011;39667;52.274;20.964;2022-12-04T08:54:33;26.40;;;19.10;;
53753;SDS011;39667;52.274;20.964;2022-12-04T08:57:01;28.20;;;19.30;;
53753;SDS011;39667;52.274;20.964;2022-12-04T08:59:28;28.00;;;19.40;;
53753;SDS011;39667;52.274;20.964;2022-12-04T09:01:54;27.40;;;21.10;;
53753;SDS011;39667;52.274;20.964;2022-12-04T09:04:20;26.40;;;19.80;;
53753;SDS011;39667;52.274;20.964;2022-12-04T09:06:46;28.90;;;20.50;;
53753;SDS011;39667;52.274;20.964;2022-12-04T09:09:12;26.50;;;20.20;;
53753;SDS011;39667;52.274;20.964;2022-12-04T09:11:38;29.80;;;21.10;;
53753;SDS011;39667;52.274;20.964;2022-12-04T09:14:04;25.00;;;19.20;;
53753;SDS011;39667;52.274;20.964;2022-12-04T09:16:30;25.70;;;18.90;;
53753;SDS011;39667;52.274;20.964;2022-12-04T09:18:57;26.70;;;19.60;;
53753;SDS011;39667;52.274;20.964;2022-12-04T09:21:23;26.00;;;19.30;;
53753;SDS011;39667;52.274;20.964;2022-12-04T09:23:49;25.80;;;20.40;;
53753;SDS011;39667;52.274;20.964;2022-12-04T09:26:26;25.90;;;19.00;;
53753;SDS011;39667;52.274;20.964;2022-12-04T09:28:55;24.90;;;19.20;;
53753;SDS011;39667;52.274;20.964;2022-12-04T09:31:22;25.00;;;19.00;;
53753;SDS011;39667;52.274;20.964;2022-12-04T09:33:49;27.20;;;19.10;;
53753;SDS011;39667;52.274;20.964;2022-12-04T09:36:16;25.70;;;19.10;;
53753;SDS011;39667;52.274;20.964;2022-12-04T09:38:43;25.30;;;18.50;;
53753;SDS011;39667;52.274;20.964;2022-12-04T09:44:02;25.20;;;18.70;;
53753;SDS011;39667;52.274;20.964;2022-12-04T09:46:57;25.70;;;20.00;;
53753;SDS011;39667;52.274;20.964;2022-12-04T09:49:45;29.40;;;20.50;;
53753;SDS011;39667;52.274;20.964;2022-12-04T09:55:53;24.70;;;17.40;;
53753;SDS011;39667;52.274;20.964;2022-12-04T09:58:19;25.80;;;18.50;;
53753;SDS011;39667;52.274;20.964;2022-12-04T10:00:49;27.60;;;19.30;;
53753;SDS011;39667;52.274;20.964;2022-12-04T10:03:17;23.50;;;18.40;;
53753;SDS011;39667;52.274;20.964;2022-12-04T10:06:03;26.10;;;19.50;;
53753;SDS011;39667;52.274;20.964;2022-12-04T10:08:34;25.00;;;18.90;;
53753;SDS011;39667;52.274;20.964;2022-12-04T10:22:18;23.40;;;18.40;;
53753;SDS011;39667;52.274;20.964;2022-12-04T10:24:56;23.00;;;18.70;;
53753;SDS011;39667;52.274;20.964;2022-12-04T10:27:31;24.60;;;18.10;;
53753;SDS011;39667;52.274;20.964;2022-12-04T10:30:12;24.90;;;18.20;;
53753;SDS011;39667;52.274;20.964;2022-12-04T10:32:47;25.90;;;19.90;;
53753;SDS011;39667;52.274;20.964;2022-12-04T10:35:23;24.80;;;17.30;;
53753;SDS011;39667;52.274;20.964;2022-12-04T10:38:18;23.00;;;17.10;;
53753;SDS011;39667;52.274;20.964;2022-12-04T10:40:49;22.30;;;18.10;;
53753;SDS011;39667;52.274;20.964;2022-12-04T10:43:33;24.80;;;17.10;;
53753;SDS011;39667;52.274;20.964;2022-12-04T10:46:07;22.90;;;18.30;;
53753;SDS011;39667;52.274;20.964;2022-12-04T10:48:46;23.90;;;19.10;;
53753;SDS011;39667;52.274;20.964;2022-12-04T10:51:17;24.00;;;18.80;;
53753;SDS011;39667;52.274;20.964;2022-12-04T10:53:44;24.80;;;20.10;;
53753;SDS011;39667;52.274;20.964;2022-12-04T10:56:12;24.80;;;19.20;;
53753;SDS011;39667;52.274;20.964;2022-12-04T10:58:39;23.90;;;17.10;;
53753;SDS011;39667;52.274;20.964;2022-12-04T11:01:07;21.50;;;17.60;;
53753;SDS011;39667;52.274;20.964;2022-12-04T11:03:40;22.70;;;18.20;;
53753;SDS011;39667;52.274;20.964;2022-12-04T11:06:10;25.30;;;19.00;;
53753;SDS011;39667;52.274;20.964;2022-12-04T11:08:42;24.90;;;19.80;;
53753;SDS011;39667;52.274;20.964;2022-12-04T11:11:15;26.00;;;19.30;;
53753;SDS011;39667;52.274;20.964;2022-12-04T11:13:48;24.00;;;19.40;;
53753;SDS011;39667;52.274;20.964;2022-12-04T11:19:02;26.00;;;18.30;;
53753;SDS011;39667;52.274;20.964;2022-12-04T11:21:43;23.80;;;19.00;;
53753;SDS011;39667;52.274;20.964;2022-12-04T11:24:24;24.20;;;19.40;;
53753;SDS011;39667;52.274;20.964;2022-12-04T11:26:54;24.60;;;19.20;;
53753;SDS011;39667;52.274;20.964;2022-12-04T11:29:25;28.00;;;20.00;;
53753;SDS011;39667;52.274;20.964;2022-12-04T11:31:57;22.70;;;18.10;;
53753;SDS011;39667;52.274;20.964;2022-12-04T11:34:37;22.50;;;18.00;;
53753;SDS011;39667;52.274;20.964;2022-12-04T11:37:14;26.50;;;20.30;;
53753;SDS011;39667;52.274;20.964;2022-12-04T11:39:45;24.60;;;20.00;;
53753;SDS011;39667;52.274;20.964;2022-12-04T11:44:38;23.80;;;19.70;;
53753;SDS011;39667;52.274;20.964;2022-12-04T11:47:15;27.40;;;21.20;;
53753;SDS011;39667;52.274;20.964;2022-12-04T11:49:44;24.80;;;19.40;;
53753;SDS011;39667;52.274;20.964;2022-12-04T11:52:32;23.50;;;18.00;;
53753;SDS011;39667;52.274;20.964;2022-12-04T11:55:41;24.40;;;18.00;;
53753;SDS011;39667;52.274;20.964;2022-12-04T12:00:59;23.70;;;18.70;;
53753;SDS011;39667;52.274;20.964;2022-12-04T12:03:33;27.50;;;21.70;;
53753;SDS011;39667;52.274;20.964;2022-12-04T12:06:15;27.90;;;20.80;;
53753;SDS011;39667;52.274;20.964;2022-12-04T12:11:43;21.50;;;18.30;;
53753;SDS011;39667;52.274;20.964;2022-12-04T12:19:37;25.50;;;19.00;;
53753;SDS011;39667;52.274;20.964;2022-12-04T12:24:40;25.50;;;20.10;;
53753;SDS011;39667;52.274;20.964;2022-12-04T12:30:20;26.80;;;21.40;;
53753;SDS011;39667;52.274;20.964;2022-12-04T12:33:03;23.30;;;18.80;;
53753;SDS011;39667;52.274;20.964;2022-12-04T12:35:38;20.60;;;17.00;;
53753;SDS011;39667;52.274;20.964;2022-12-04T12:38:14;20.50;;;17.20;;
53753;SDS011;39667;52.274;20.964;2022-12-04T12:43:56;24.00;;;18.90;;
53753;SDS011;39667;52.274;20.964;2022-12-04T12:46:28;23.90;;;20.00;;
53753;SDS011;39667;52.274;20.964;2022-12-04T12:51:51;23.10;;;19.40;;
53753;SDS011;39667;52.274;20.964;2022-12-04T12:56:15;23.10;;;19.10;;
53753;SDS011;39667;52.274;20.964;2022-12-04T12:58:47;23.20;;;17.70;;
53753;SDS011;39667;52.274;20.964;2022-12-04T13:12:57;26.20;;;19.60;;
53753;SDS011;39667;52.274;20.964;2022-12-04T13:15:40;24.90;;;18.10;;
53753;SDS011;39667;52.274;20.964;2022-12-04T13:18:09;20.60;;;16.70;;
53753;SDS011;39667;52.274;20.964;2022-12-04T13:20:54;22.90;;;18.00;;
53753;SDS011;39667;52.274;20.964;2022-12-04T13:29:21;24.20;;;18.90;;
53753;SDS011;39667;52.274;20.964;2022-12-04T13:40:42;27.50;;;19.80;;
53753;SDS011;39667;52.274;20.964;2022-12-04T13:43:24;23.70;;;18.40;;
53753;SDS011;39667;52.274;20.964;2022-12-04T13:46:03;22.70;;;19.90;;
53753;SDS011;39667;52.274;20.964;2022-12-04T13:48:37;28.20;;;20.30;;
53753;SDS011;39667;52.274;20.964;2022-12-04T13:51:13;30.00;;;21.40;;
53753;SDS011;39667;52.274;20.964;2022-12-04T13:56:37;22.70;;;17.50;;
53753;SDS011;39667;52.274;20.964;2022-12-04T14:02:01;22.70;;;18.60;;
53753;SDS011;39667;52.274;20.964;2022-12-04T14:04:53;24.90;;;17.60;;
53753;SDS011;39667;52.274;20.964;2022-12-04T14:21:04;21.40;;;18.20;;
53753;SDS011;39667;52.274;20.964;2022-12-04T14:23:38;21.80;;;18.20;;
53753;SDS011;39667;52.274;20.964;2022-12-04T14:26:24;21.80;;;16.80;;
53753;SDS011;39667;52.274;20.964;2022-12-04T14:29:33;20.50;;;15.40;;
53753;SDS011;39667;52.274;20.964;2022-12-04T14:32:22;20.50;;;17.00;;
53753;SDS011;39667;52.274;20.964;2022-12-04T14:34:52;20.00;;;15.80;;
53753;SDS011;39667;52.274;20.964;2022-12-04T14:37:23;19.60;;;16.30;;
53753;SDS011;39667;52.274;20.964;2022-12-04T14:39:56;21.50;;;17.20;;
53753;SDS011;39667;52.274;20.964;2022-12-04T14:42:26;18.30;;;15.70;;
53753;SDS011;39667;52.274;20.964;2022-12-04T14:45:04;19.10;;;15.70;;
53753;SDS011;39667;52.274;20.964;2022-12-04T14:51:11;22.00;;;15.70;;
53753;SDS011;39667;52.274;20.964;2022-12-04T14:53:48;17.80;;;14.80;;
53753;SDS011;39667;52.274;20.964;2022-12-04T14:59:22;20.50;;;16.00;;
53753;SDS011;39667;52.274;20.964;2022-12-04T15:01:55;19.80;;;15.30;;
53753;SDS011;39667;52.274;20.964;2022-12-04T15:04:22;20.90;;;16.60;;
53753;SDS011;39667;52.274;20.964;2022-12-04T15:06:54;20.80;;;16.60;;
53753;SDS011;39667;52.274;20.964;2022-12-04T15:09:26;20.60;;;16.30;;
53753;SDS011;39667;52.274;20.964;2022-12-04T15:12:19;19.40;;;14.80;;
53753;SDS011;39667;52.274;20.964;2022-12-04T15:15:03;17.90;;;14.40;;
53753;SDS011;39667;52.274;20.964;2022-12-04T15:18:01;20.40;;;15.10;;
53753;SDS011;39667;52.274;20.964;2022-12-04T15:23:19;21.00;;;16.20;;
53753;SDS011;39667;52.274;20.964;2022-12-04T15:25:53;22.40;;;16.70;;
53753;SDS011;39667;52.274;20.964;2022-12-04T15:31:24;19.80;;;15.70;;
53753;SDS011;39667;52.274;20.964;2022-12-04T15:33:56;20.00;;;15.80;;
53753;SDS011;39667;52.274;20.964;2022-12-04T15:39:13;21.70;;;15.80;;
53753;SDS011;39667;52.274;20.964;2022-12-04T15:41:44;22.40;;;17.90;;
53753;SDS011;39667;52.274;20.964;2022-12-04T15:44:21;21.40;;;17.00;;
53753;SDS011;39667;52.274;20.964;2022-12-04T15:46:49;21.20;;;17.40;;
53753;SDS011;39667;52.274;20.964;2022-12-04T15:49:23;19.70;;;17.20;;
53753;SDS011;39667;52.274;20.964;2022-12-04T15:51:52;21.50;;;17.30;;
53753;SDS011;39667;52.274;20.964;2022-12-04T15:54:30;20.60;;;16.60;;
53753;SDS011;39667;52.274;20.964;2022-12-04T15:57:00;17.70;;;15.30;;
53753;SDS011;39667;52.274;20.964;2022-12-04T15:59:29;18.50;;;15.20;;
53753;SDS011;39667;52.274;20.964;2022-12-04T16:02:00;22.80;;;17.90;;
53753;SDS011;39667;52.274;20.964;2022-12-04T16:04:46;21.20;;;16.50;;
53753;SDS011;39667;52.274;20.964;2022-12-04T16:07:21;21.20;;;17.40;;
53753;SDS011;39667;52.274;20.964;2022-12-04T16:09:54;19.30;;;15.80;;
53753;SDS011;39667;52.274;20.964;2022-12-04T16:12:30;17.60;;;14.30;;
53753;SDS011;39667;52.274;20.964;2022-12-04T16:14:57;21.80;;;17.60;;
53753;SDS011;39667;52.274;20.964;2022-12-04T16:17:33;19.40;;;16.20;;
53753;SDS011;39667;52.274;20.964;2022-12-04T16:20:03;21.20;;;16.70;;
53753;SDS011;39667;52.274;20.964;2022-12-04T16:22:30;21.00;;;16.90;;
53753;SDS011;39667;52.274;20.964;2022-12-04T16:24:57;20.70;;;16.60;;
53753;SDS011;39667;52.274;20.964;2022-12-04T16:27:25;19.70;;;16.40;;
53753;SDS011;39667;52.274;20.964;2022-12-04T16:29:52;18.60;;;15.30;;
53753;SDS011;39667;52.274;20.964;2022-12-04T16:32:20;17.90;;;15.00;;
53753;SDS011;39667;52.274;20.964;2022-12-04T16:34:50;18.60;;;15.40;;
53753;SDS011;39667;52.274;20.964;2022-12-04T16:37:18;19.80;;;15.10;;
53753;SDS011;39667;52.274;20.964;2022-12-04T16:39:46;18.30;;;15.20;;
53753;SDS011;39667;52.274;20.964;2022-12-04T16:44:42;21.70;;;17.00;;
53753;SDS011;39667;52.274;20.964;2022-12-04T16:47:10;22.30;;;16.10;;
53753;SDS011;39667;52.274;20.964;2022-12-04T16:49:38;20.60;;;15.60;;
53753;SDS011;39667;52.274;20.964;2022-12-04T16:52:05;17.30;;;14.60;;
53753;SDS011;39667;52.274;20.964;2022-12-04T16:54:33;20.90;;;15.30;;